createdAt,value
2018-11-29T00:00:44.167Z,101357.66
2018-11-29T00:01:48.255Z,101357.66
2018-11-29T00:02:52.600Z,101364.28
2018-11-29T00:03:57.035Z,101355.02
2018-11-29T00:05:01.487Z,101359.34
2018-11-29T00:06:05.815Z,101352.72
2018-11-29T00:07:10.159Z,101350.46
2018-11-29T00:08:14.342Z,101363.14
2018-11-29T00:09:18.743Z,101355.20
2018-11-29T00:10:22.767Z,101350.73
2018-11-29T00:11:27.051Z,101343.64
2018-11-29T00:12:31.151Z,101342.70
2018-11-29T00:13:35.236Z,101349.80
2018-11-29T00:14:39.356Z,101341.00
2018-11-29T00:15:43.497Z,101347.61
2018-11-29T00:16:47.663Z,101346.29
2018-11-29T00:17:51.863Z,101350.27
2018-11-29T00:18:55.924Z,101347.61
2018-11-29T00:20:00.167Z,101348.94
2018-11-29T00:21:04.188Z,101349.80
2018-11-29T00:22:08.268Z,101349.32
2018-11-29T00:23:12.654Z,101345.34
2018-11-29T00:24:16.721Z,101337.41
2018-11-29T00:25:20.910Z,101338.62
2018-11-29T00:26:25.049Z,101344.41
2018-11-29T00:27:29.098Z,101340.80
2018-11-29T00:28:33.144Z,101339.47
2018-11-29T00:29:37.139Z,101339.86
2018-11-29T00:30:42.200Z,101343.44
2018-11-29T00:31:46.506Z,101350.91
2018-11-29T00:32:51.581Z,101347.33
2018-11-29T00:33:55.654Z,101336.27
2018-11-29T00:34:59.891Z,101348.53
2018-11-29T00:36:03.988Z,101340.12
2018-11-29T00:37:08.122Z,101346.27
2018-11-29T00:38:12.151Z,101344.56
2018-11-29T00:39:16.127Z,101346.27
2018-11-29T00:40:22.102Z,101344.86
2018-11-29T00:41:26.145Z,101336.41
2018-11-29T00:42:30.258Z,101335.95
2018-11-29T00:43:34.516Z,101336.80
2018-11-29T00:44:38.597Z,101331.98
2018-11-29T00:45:42.714Z,101336.80
2018-11-29T00:46:46.779Z,101325.27
2018-11-29T00:47:51.247Z,101325.66
2018-11-29T00:48:55.294Z,101330.45
2018-11-29T00:49:59.332Z,101326.39
2018-11-29T00:51:03.350Z,101329.51
2018-11-29T00:52:07.565Z,101332.55
2018-11-29T00:53:11.692Z,101335.27
2018-11-29T00:54:15.780Z,101326.39
2018-11-29T00:55:20.794Z,101333.39
2018-11-29T00:56:24.913Z,101332.81
2018-11-29T00:57:29.056Z,101338.58
2018-11-29T00:58:33.041Z,101329.30
2018-11-29T00:59:37.172Z,101338.58
2018-11-29T01:00:41.141Z,101336.78
2018-11-29T01:01:50.604Z,101331.48
2018-11-29T01:02:58.817Z,101338.48
2018-11-29T01:04:02.939Z,101335.84
2018-11-29T01:05:07.097Z,101332.22
2018-11-29T01:06:11.248Z,101339.34
2018-11-29T01:07:15.339Z,101332.22
2018-11-29T01:08:19.418Z,101336.58
2018-11-29T01:09:23.475Z,101335.63
2018-11-29T01:10:27.580Z,101339.96
2018-11-29T01:11:31.624Z,101340.34
2018-11-29T01:12:35.819Z,101327.57
2018-11-29T01:13:39.886Z,101338.08
2018-11-29T01:14:44.265Z,101326.16
2018-11-29T01:15:48.438Z,101330.13
2018-11-29T01:16:52.565Z,101332.78
2018-11-29T01:17:56.585Z,101331.08
2018-11-29T01:19:00.676Z,101333.25
2018-11-29T01:20:06.836Z,101339.02
2018-11-29T01:21:09.990Z,101345.64
2018-11-29T01:22:14.136Z,101343.84
2018-11-29T01:23:18.238Z,101337.23
2018-11-29T01:24:22.290Z,101340.81
2018-11-29T01:25:26.310Z,101339.88
2018-11-29T01:26:30.421Z,101338.08
2018-11-29T01:27:34.486Z,101350.84
2018-11-29T01:28:38.815Z,101350.38
2018-11-29T01:29:42.856Z,101345.91
2018-11-29T01:30:46.955Z,101350.27
2018-11-29T01:31:51.043Z,101350.27
2018-11-29T01:32:55.156Z,101346.41
2018-11-29T01:34:00.120Z,101347.73
2018-11-29T01:35:04.184Z,101344.31
2018-11-29T01:36:08.247Z,101354.91
2018-11-29T01:37:12.330Z,101350.55
2018-11-29T01:38:16.443Z,101357.17
2018-11-29T01:39:20.532Z,101356.70
2018-11-29T01:40:24.588Z,101356.23
2018-11-29T01:41:28.647Z,101351.32
2018-11-29T01:42:32.841Z,101355.30
2018-11-29T01:43:36.930Z,101352.05
2018-11-29T01:44:41.041Z,101355.17
2018-11-29T01:45:45.083Z,101352.91
2018-11-29T01:46:49.063Z,101354.62
2018-11-29T01:47:53.223Z,101359.33
2018-11-29T01:48:57.188Z,101358.47
2018-11-29T01:50:01.352Z,101358.00
2018-11-29T01:51:06.403Z,101357.14
2018-11-29T01:52:12.732Z,101350.27
2018-11-29T01:53:17.163Z,101352.83
2018-11-29T01:54:21.210Z,101350.64
2018-11-29T01:55:25.235Z,101348.00
2018-11-29T01:56:29.281Z,101348.85
2018-11-29T01:57:33.361Z,101345.34
2018-11-29T01:58:37.411Z,101344.38
2018-11-29T01:59:41.514Z,101344.77
2018-11-29T02:00:45.608Z,101339.58
2018-11-29T02:01:49.663Z,101347.14
2018-11-29T02:02:53.830Z,101342.23
2018-11-29T02:03:57.955Z,101344.88
2018-11-29T02:05:02.141Z,101337.75
2018-11-29T02:06:06.746Z,101332.37
2018-11-29T02:07:10.824Z,101336.34
2018-11-29T02:08:14.797Z,101331.52
2018-11-29T02:09:18.881Z,101337.28
2018-11-29T02:10:27.460Z,101336.81
2018-11-29T02:11:31.659Z,101334.28
2018-11-29T02:12:35.837Z,101333.70
2018-11-29T02:13:40.177Z,101338.99
2018-11-29T02:14:44.331Z,101342.50
2018-11-29T02:15:48.394Z,101337.67
2018-11-29T02:16:53.513Z,101339.93
2018-11-29T02:17:57.677Z,101335.96
2018-11-29T02:19:02.085Z,101332.96
2018-11-29T02:20:08.507Z,101339.47
2018-11-29T02:21:12.554Z,101341.26
2018-11-29T02:22:16.762Z,101334.28
2018-11-29T02:23:21.154Z,101332.96
2018-11-29T02:24:25.157Z,101336.81
2018-11-29T02:25:29.278Z,101334.64
2018-11-29T02:26:33.355Z,101328.02
2018-11-29T02:27:37.723Z,101329.34
2018-11-29T02:28:45.795Z,101323.69
2018-11-29T02:29:49.984Z,101323.69
2018-11-29T02:30:54.095Z,101321.05
2018-11-29T02:31:58.192Z,101316.69
2018-11-29T02:33:02.342Z,101318.48
2018-11-29T02:34:06.678Z,101314.98
2018-11-29T02:35:10.767Z,101311.39
2018-11-29T02:36:14.893Z,101315.24
2018-11-29T02:37:18.988Z,101302.86
2018-11-29T02:38:23.162Z,101308.06
2018-11-29T02:39:27.223Z,101312.03
2018-11-29T02:40:31.449Z,101304.56
2018-11-29T02:41:35.879Z,101304.01
2018-11-29T02:42:40.091Z,101304.86
2018-11-29T02:43:44.205Z,101306.19
2018-11-29T02:44:48.410Z,101293.33
2018-11-29T02:45:52.507Z,101295.13
2018-11-29T02:46:56.632Z,101292.47
2018-11-29T02:48:00.640Z,101288.50
2018-11-29T02:49:04.839Z,101292.09
2018-11-29T02:50:09.960Z,101287.30
2018-11-29T02:51:14.130Z,101290.94
2018-11-29T02:52:18.272Z,101288.62
2018-11-29T02:53:22.407Z,101287.30
2018-11-29T02:54:26.923Z,101288.67
2018-11-29T02:55:30.961Z,101289.95
2018-11-29T02:56:35.030Z,101289.52
2018-11-29T02:57:39.331Z,101278.55
2018-11-29T02:58:43.321Z,101279.41
2018-11-29T02:59:47.327Z,101281.67
2018-11-29T03:00:51.418Z,101286.11
2018-11-29T03:01:55.636Z,101286.97
2018-11-29T03:02:59.723Z,101278.67
2018-11-29T03:04:03.729Z,101273.38
2018-11-29T03:05:07.982Z,101277.34
2018-11-29T03:06:11.991Z,101276.49
2018-11-29T03:07:16.046Z,101279.61
2018-11-29T03:08:20.054Z,101278.29
2018-11-29T03:09:24.151Z,101277.91
2018-11-29T03:10:29.210Z,101281.41
2018-11-29T03:11:33.333Z,101279.70
2018-11-29T03:12:37.525Z,101274.41
2018-11-29T03:13:41.638Z,101279.70
2018-11-29T03:14:45.788Z,101276.11
2018-11-29T03:15:49.939Z,101281.88
2018-11-29T03:16:54.091Z,101278.88
2018-11-29T03:17:58.250Z,101281.53
2018-11-29T03:19:02.423Z,101276.23
2018-11-29T03:20:08.432Z,101278.50
2018-11-29T03:21:12.688Z,101271.88
2018-11-29T03:22:16.865Z,101270.55
2018-11-29T03:23:21.286Z,101278.97
2018-11-29T03:24:25.348Z,101278.97
2018-11-29T03:25:29.807Z,101275.84
2018-11-29T03:26:33.860Z,101279.82
2018-11-29T03:27:38.068Z,101277.37
2018-11-29T03:28:42.273Z,101275.67
2018-11-29T03:29:46.437Z,101283.73
2018-11-29T03:30:51.007Z,101277.47
2018-11-29T03:31:55.170Z,101280.97
2018-11-29T03:32:59.353Z,101280.03
2018-11-29T03:34:03.406Z,101283.61
2018-11-29T03:35:07.946Z,101280.58
2018-11-29T03:36:12.071Z,101268.67
2018-11-29T03:37:16.147Z,101281.44
2018-11-29T03:38:20.317Z,101273.97
2018-11-29T03:39:24.332Z,101274.94
2018-11-29T03:40:29.023Z,101272.38
2018-11-29T03:41:33.167Z,101270.20
2018-11-29T03:42:37.420Z,101276.35
2018-11-29T03:43:41.483Z,101279.12
2018-11-29T03:44:45.491Z,101273.44
2018-11-29T03:45:49.580Z,101279.12
2018-11-29T03:46:53.669Z,101272.11
2018-11-29T03:47:57.748Z,101278.73
2018-11-29T03:49:01.863Z,101275.14
2018-11-29T03:50:08.429Z,101275.14
2018-11-29T03:51:12.515Z,101274.77
2018-11-29T03:52:16.629Z,101269.47
2018-11-29T03:53:20.727Z,101284.41
2018-11-29T03:54:24.960Z,101275.14
2018-11-29T03:55:28.959Z,101269.85
2018-11-29T03:56:33.159Z,101272.38
2018-11-29T03:57:37.908Z,101272.84
2018-11-29T03:58:41.962Z,101277.67
2018-11-29T03:59:46.181Z,101277.67
2018-11-29T04:00:56.994Z,101268.88
2018-11-29T04:02:01.056Z,101287.41
2018-11-29T04:03:05.430Z,101282.70
2018-11-29T04:04:09.486Z,101279.47
2018-11-29T04:05:13.602Z,101276.35
2018-11-29T04:06:17.811Z,101282.88
2018-11-29T04:07:21.924Z,101275.80
2018-11-29T04:08:25.999Z,101276.05
2018-11-29T04:09:30.103Z,101270.17
2018-11-29T04:10:34.203Z,101267.52
2018-11-29T04:11:38.346Z,101266.96
2018-11-29T04:12:42.534Z,101270.81
2018-11-29T04:13:46.653Z,101275.17
2018-11-29T04:14:50.744Z,101267.22
2018-11-29T04:15:54.847Z,101262.40
2018-11-29T04:16:59.066Z,101268.81
2018-11-29T04:18:03.108Z,101265.31
2018-11-29T04:19:07.145Z,101267.90
2018-11-29T04:20:16.162Z,101262.19
2018-11-29T04:21:20.250Z,101266.58
2018-11-29T04:22:24.469Z,101265.60
2018-11-29T04:23:28.627Z,101261.63
2018-11-29T04:24:33.405Z,101258.22
2018-11-29T04:25:37.437Z,101258.69
2018-11-29T04:26:41.497Z,101261.81
2018-11-29T04:27:45.554Z,101263.98
2018-11-29T04:28:49.703Z,101263.60
2018-11-29T04:29:53.775Z,101253.86
2018-11-29T04:30:57.833Z,101260.48
2018-11-29T04:32:02.028Z,101257.83
2018-11-29T04:33:06.040Z,101258.81
2018-11-29T04:34:10.124Z,101250.48
2018-11-29T04:35:14.747Z,101254.45
2018-11-29T04:36:18.831Z,101255.87
2018-11-29T04:37:23.296Z,101255.05
2018-11-29T04:38:27.283Z,101250.31
2018-11-29T04:39:31.355Z,101243.69
2018-11-29T04:40:35.411Z,101253.34
2018-11-29T04:41:40.830Z,101247.10
2018-11-29T04:42:44.934Z,101254.55
2018-11-29T04:43:49.056Z,101247.45
2018-11-29T04:44:53.156Z,101259.38
2018-11-29T04:46:08.692Z,101251.42
2018-11-29T04:47:12.821Z,101249.37
2018-11-29T04:48:17.079Z,101250.22
2018-11-29T04:49:21.184Z,101254.66
2018-11-29T04:50:25.298Z,101263.55
2018-11-29T04:51:29.386Z,101253.90
2018-11-29T04:52:33.678Z,101257.78
2018-11-29T04:53:37.804Z,101254.28
2018-11-29T04:54:42.028Z,101252.95
2018-11-29T04:55:46.228Z,101253.34
2018-11-29T04:56:50.317Z,101256.84
2018-11-29T04:57:54.376Z,101251.08
2018-11-29T04:58:58.422Z,101252.02
2018-11-29T05:00:02.539Z,101254.66
2018-11-29T05:01:06.546Z,101253.34
2018-11-29T05:02:11.948Z,101247.10
2018-11-29T05:03:14.770Z,101253.34
2018-11-29T05:04:19.002Z,101253.72
2018-11-29T05:05:23.136Z,101244.45
2018-11-29T05:06:27.234Z,101241.80
2018-11-29T05:07:31.298Z,101240.09
2018-11-29T05:08:35.394Z,101240.09
2018-11-29T05:09:39.557Z,101235.66
2018-11-29T05:10:43.620Z,101242.28
2018-11-29T05:11:47.723Z,101223.27
2018-11-29T05:12:51.815Z,101236.52
2018-11-29T05:13:55.976Z,101228.56
2018-11-29T05:14:59.990Z,101228.56
2018-11-29T05:16:04.069Z,101233.48
2018-11-29T05:17:08.162Z,101229.39
2018-11-29T05:18:12.340Z,101233.74
2018-11-29T05:19:16.424Z,101237.33
2018-11-29T05:20:20.638Z,101230.23
2018-11-29T05:21:24.689Z,101226.65
2018-11-29T05:22:28.769Z,101227.03
2018-11-29T05:23:33.019Z,101224.73
2018-11-29T05:24:37.013Z,101219.91
2018-11-29T05:25:41.106Z,101218.11
2018-11-29T05:26:45.296Z,101217.26
2018-11-29T05:27:49.468Z,101215.58
2018-11-29T05:28:54.372Z,101214.73
2018-11-29T05:29:58.592Z,101210.76
2018-11-29T05:31:02.731Z,101216.91
2018-11-29T05:32:06.957Z,101220.03
2018-11-29T05:33:11.075Z,101216.05
2018-11-29T05:34:15.141Z,101213.41
2018-11-29T05:35:19.402Z,101210.76
2018-11-29T05:36:23.488Z,101220.50
2018-11-29T05:37:27.731Z,101208.70
2018-11-29T05:38:31.866Z,101211.35
2018-11-29T05:39:35.863Z,101216.14
2018-11-29T05:40:39.957Z,101213.15
2018-11-29T05:41:44.004Z,101211.82
2018-11-29T05:42:48.325Z,101209.17
2018-11-29T05:43:52.416Z,101217.97
2018-11-29T05:44:56.552Z,101212.30
2018-11-29T05:46:00.758Z,101215.89
2018-11-29T05:47:05.561Z,101207.56
2018-11-29T05:49:20.356Z,101203.97
2018-11-29T05:50:24.446Z,101215.89
2018-11-29T05:51:28.506Z,101209.00
2018-11-29T05:52:32.848Z,101209.48
2018-11-29T05:53:36.923Z,101205.03
2018-11-29T05:54:41.054Z,101209.86
2018-11-29T05:55:45.206Z,101213.45
2018-11-29T05:56:49.459Z,101213.92
2018-11-29T05:57:53.459Z,101205.03
2018-11-29T05:58:57.535Z,101208.53
2018-11-29T06:00:01.652Z,101204.56
2018-11-29T06:01:08.600Z,101210.71
2018-11-29T06:02:12.699Z,101203.23
2018-11-29T06:03:16.936Z,101207.56
2018-11-29T06:04:21.450Z,101204.91
2018-11-29T06:05:25.675Z,101204.82
2018-11-29T06:06:29.725Z,101203.59
2018-11-29T06:07:33.842Z,101211.18
2018-11-29T06:08:37.872Z,101212.86
2018-11-29T06:09:42.130Z,101216.83
2018-11-29T06:10:46.389Z,101211.91
2018-11-29T06:11:50.492Z,101210.12
2018-11-29T06:12:54.584Z,101210.84
2018-11-29T06:13:58.644Z,101205.67
2018-11-29T06:15:02.692Z,101213.50
2018-11-29T06:16:06.842Z,101208.33
2018-11-29T06:17:10.905Z,101220.63
2018-11-29T06:18:14.955Z,101202.09
2018-11-29T06:19:19.029Z,101204.73
2018-11-29T06:20:23.133Z,101199.91
2018-11-29T06:21:27.205Z,101200.76
2018-11-29T06:22:31.263Z,101199.44
2018-11-29T06:23:35.765Z,101201.23
2018-11-29T06:24:40.290Z,101205.67
2018-11-29T06:25:44.416Z,101199.61
2018-11-29T06:26:48.762Z,101201.44
2018-11-29T06:27:53.189Z,101199.73
2018-11-29T06:28:57.271Z,101196.23
2018-11-29T06:30:01.355Z,101195.03
2018-11-29T06:31:05.779Z,101196.36
2018-11-29T06:32:16.647Z,101193.71
2018-11-29T06:33:20.796Z,101200.80
2018-11-29T06:34:25.172Z,101198.16
2018-11-29T06:35:29.538Z,101194.53
2018-11-29T06:36:33.639Z,101197.56
2018-11-29T06:37:38.041Z,101188.77
2018-11-29T06:38:42.116Z,101190.94
2018-11-29T06:39:46.144Z,101189.62
2018-11-29T06:40:50.170Z,101192.64
2018-11-29T06:41:54.397Z,101187.70
2018-11-29T06:42:58.516Z,101181.58
2018-11-29T06:44:02.682Z,101182.91
2018-11-29T06:45:16.426Z,101181.08
2018-11-29T06:46:21.019Z,101181.58
2018-11-29T06:47:25.179Z,101182.05
2018-11-29T06:48:29.181Z,101185.17
2018-11-29T06:49:33.477Z,101182.05
2018-11-29T06:50:37.665Z,101177.61
2018-11-29T06:51:41.835Z,101174.45
2018-11-29T06:52:46.816Z,101169.55
2018-11-29T06:53:56.469Z,101177.96
2018-11-29T06:55:00.564Z,101172.66
2018-11-29T06:56:04.626Z,101171.34
2018-11-29T06:57:09.461Z,101167.84
2018-11-29T06:58:13.572Z,101171.34
2018-11-29T06:59:17.651Z,101167.75
2018-11-29T07:00:33.782Z,101165.95
2018-11-29T07:01:37.935Z,101174.75
2018-11-29T07:02:42.014Z,101165.95
2018-11-29T07:03:46.076Z,101164.16
2018-11-29T07:04:50.211Z,101166.34
2018-11-29T07:05:54.304Z,101164.03
2018-11-29T07:06:58.614Z,101168.39
2018-11-29T07:08:02.763Z,101157.80
2018-11-29T07:09:08.794Z,101152.03
2018-11-29T07:10:15.204Z,101157.20
2018-11-29T07:11:19.474Z,101158.65
2018-11-29T07:12:23.655Z,101153.35
2018-11-29T07:13:28.133Z,101153.44
2018-11-29T07:14:37.115Z,101147.30
2018-11-29T07:15:41.444Z,101146.95
2018-11-29T07:16:45.486Z,101144.77
2018-11-29T07:17:49.666Z,101142.69
2018-11-29T07:18:53.729Z,101143.66
2018-11-29T07:19:57.839Z,101146.78
2018-11-29T07:21:13.708Z,101149.90
2018-11-29T07:22:17.799Z,101146.88
2018-11-29T07:23:21.927Z,101145.20
2018-11-29T07:24:26.256Z,101140.47
2018-11-29T07:25:30.367Z,101147.20
2018-11-29T07:26:34.577Z,101155.62
2018-11-29T07:27:39.359Z,101152.59
2018-11-29T07:28:43.364Z,101151.27
2018-11-29T07:29:47.470Z,101146.95
2018-11-29T07:30:51.556Z,101148.27
2018-11-29T07:31:55.800Z,101139.95
2018-11-29T07:32:59.893Z,101150.16
2018-11-29T07:34:04.007Z,101141.83
2018-11-29T07:35:09.399Z,101149.77
2018-11-29T07:36:14.018Z,101145.45
2018-11-29T07:37:18.114Z,101141.83
2018-11-29T07:38:22.355Z,101143.53
2018-11-29T07:39:26.572Z,101141.74
2018-11-29T07:40:30.686Z,101136.45
2018-11-29T07:41:34.754Z,101139.00
2018-11-29T07:42:39.012Z,101142.98
2018-11-29T07:43:43.048Z,101130.56
2018-11-29T07:44:47.357Z,101143.33
2018-11-29T07:45:51.424Z,101142.00
2018-11-29T07:46:55.674Z,101143.70
2018-11-29T07:47:59.683Z,101154.30
2018-11-29T07:49:03.744Z,101144.44
2018-11-29T07:50:17.143Z,101151.91
2018-11-29T07:51:21.289Z,101147.72
2018-11-29T07:52:25.378Z,101141.95
2018-11-29T07:53:29.545Z,101148.36
2018-11-29T07:54:33.739Z,101140.20
2018-11-29T07:55:37.875Z,101144.55
2018-11-29T07:56:41.975Z,101146.14
2018-11-29T07:57:46.956Z,101145.19
2018-11-29T07:58:52.429Z,101156.67
2018-11-29T07:59:55.356Z,101152.10
2018-11-29T08:00:59.476Z,101150.30
2018-11-29T08:02:03.675Z,101152.83
2018-11-29T08:03:07.727Z,101150.95
2018-11-29T08:04:11.910Z,101145.52
2018-11-29T08:05:16.475Z,101137.48
2018-11-29T08:06:21.532Z,101145.30
2018-11-29T08:07:25.584Z,101139.91
2018-11-29T08:08:29.819Z,101138.50
2018-11-29T08:09:33.846Z,101134.41
2018-11-29T08:10:38.157Z,101135.13
2018-11-29T08:11:42.258Z,101128.89
2018-11-29T08:12:46.367Z,101129.64
2018-11-29T08:13:50.459Z,101129.42
2018-11-29T08:14:54.715Z,101125.80
2018-11-29T08:15:58.739Z,101120.88
2018-11-29T08:17:03.077Z,101120.28
2018-11-29T08:18:07.286Z,101123.69
2018-11-29T08:19:11.518Z,101114.67
2018-11-29T08:20:18.677Z,101113.72
2018-11-29T08:21:22.790Z,101117.57
2018-11-29T08:22:26.863Z,101113.22
2018-11-29T08:23:31.024Z,101110.09
2018-11-29T08:24:35.283Z,101113.97
2018-11-29T08:25:39.505Z,101123.72
2018-11-29T08:26:43.525Z,101117.95
2018-11-29T08:27:47.878Z,101120.59
2018-11-29T08:28:51.990Z,101116.62
2018-11-29T08:29:56.117Z,101113.59
2018-11-29T08:31:00.343Z,101119.27
2018-11-29T08:32:04.376Z,101116.62
2018-11-29T08:33:08.503Z,101117.09
2018-11-29T08:34:12.776Z,101117.95
2018-11-29T08:35:16.822Z,101119.66
2018-11-29T08:36:21.019Z,101123.03
2018-11-29T08:37:25.832Z,101119.05
2018-11-29T08:38:31.769Z,101122.90
2018-11-29T08:39:36.187Z,101117.59
2018-11-29T08:40:40.210Z,101123.75
2018-11-29T08:41:44.718Z,101125.45
2018-11-29T08:42:48.879Z,101126.78
2018-11-29T08:43:53.089Z,101122.71
2018-11-29T08:44:57.415Z,101124.51
2018-11-29T08:46:01.497Z,101132.33
2018-11-29T08:47:05.831Z,101138.48
2018-11-29T08:48:09.960Z,101126.18
2018-11-29T08:49:14.299Z,101136.31
2018-11-29T08:50:18.501Z,101136.44
2018-11-29T08:51:22.790Z,101140.75
2018-11-29T08:52:27.059Z,101139.44
2018-11-29T08:53:31.237Z,101135.45
2018-11-29T08:54:35.978Z,101144.26
2018-11-29T08:55:40.218Z,101146.44
2018-11-29T08:56:45.106Z,101151.73
2018-11-29T08:57:50.235Z,101142.46
2018-11-29T08:58:55.222Z,101142.59
2018-11-29T09:00:00.263Z,101148.61
2018-11-29T09:01:05.906Z,101146.81
2018-11-29T09:02:10.132Z,101151.27
2018-11-29T09:03:14.986Z,101151.27
2018-11-29T09:04:19.951Z,101156.56
2018-11-29T09:05:23.999Z,101148.14
2018-11-29T09:06:28.089Z,101157.77
2018-11-29T09:07:32.260Z,101154.16
2018-11-29T09:08:36.391Z,101149.63
2018-11-29T09:09:40.677Z,101165.78
2018-11-29T09:10:45.027Z,101154.70
2018-11-29T09:11:49.093Z,101156.03
2018-11-29T09:12:53.329Z,101148.08
2018-11-29T09:13:57.656Z,101155.17
2018-11-29T09:15:02.228Z,101156.84
2018-11-29T09:16:06.450Z,101157.70
2018-11-29T09:17:10.512Z,101144.83
2018-11-29T09:18:14.571Z,101150.98
2018-11-29T09:19:18.745Z,101145.67
2018-11-29T09:20:23.187Z,101150.84
2018-11-29T09:21:27.320Z,101156.16
2018-11-29T09:22:31.470Z,101153.16
2018-11-29T09:23:35.593Z,101150.84
2018-11-29T09:24:39.906Z,101154.73
2018-11-29T09:25:44.103Z,101161.23
2018-11-29T09:26:48.267Z,101159.66
2018-11-29T09:27:52.837Z,101166.91
2018-11-29T09:28:56.994Z,101161.04
2018-11-29T09:30:01.208Z,101172.47
2018-11-29T09:31:05.728Z,101159.72
2018-11-29T09:32:09.805Z,101156.09
2018-11-29T09:33:14.082Z,101144.06
2018-11-29T09:34:18.297Z,101144.78
2018-11-29T09:35:23.025Z,101142.13
2018-11-29T09:36:27.172Z,101138.41
2018-11-29T09:37:31.248Z,101139.39
2018-11-29T09:38:35.394Z,101142.77
2018-11-29T09:39:39.580Z,101137.08
2018-11-29T09:40:43.696Z,101136.13
2018-11-29T09:41:47.806Z,101136.13
2018-11-29T09:42:51.934Z,101139.16
2018-11-29T09:43:56.108Z,101144.56
2018-11-29T09:45:00.125Z,101135.19
2018-11-29T09:46:04.230Z,101136.73
2018-11-29T09:47:08.388Z,101135.88
2018-11-29T09:48:12.694Z,101138.16
2018-11-29T09:49:16.917Z,101132.37
2018-11-29T09:50:21.084Z,101132.00
2018-11-29T09:51:25.186Z,101132.00
2018-11-29T09:52:29.260Z,101135.73
2018-11-29T09:53:33.351Z,101138.86
2018-11-29T09:54:37.436Z,101136.80
2018-11-29T09:55:41.611Z,101135.35
2018-11-29T09:56:45.659Z,101124.27
2018-11-29T09:57:50.711Z,101125.82
2018-11-29T09:58:54.839Z,101133.78
2018-11-29T09:59:59.685Z,101135.23
2018-11-29T10:01:03.748Z,101130.75
2018-11-29T10:02:07.911Z,101120.27
2018-11-29T10:03:13.434Z,101129.55
2018-11-29T10:04:17.686Z,101134.00
2018-11-29T10:05:22.194Z,101133.05
2018-11-29T10:06:26.475Z,101125.10
2018-11-29T10:07:30.551Z,101121.13
2018-11-29T10:08:34.951Z,101122.80
2018-11-29T10:09:39.339Z,101120.52
2018-11-29T10:10:43.414Z,101121.47
2018-11-29T10:11:47.517Z,101113.52
2018-11-29T10:12:52.116Z,101114.50
2018-11-29T10:13:56.139Z,101116.16
2018-11-29T10:15:00.425Z,101105.56
2018-11-29T10:16:04.552Z,101101.59
2018-11-29T10:17:08.696Z,101096.41
2018-11-29T10:18:12.929Z,101092.19
2018-11-29T10:19:17.153Z,101089.25
2018-11-29T10:20:21.299Z,101087.11
2018-11-29T10:21:25.511Z,101079.73
2018-11-29T10:22:29.675Z,101082.52
2018-11-29T10:23:33.656Z,101091.31
2018-11-29T10:24:37.751Z,101095.77
2018-11-29T10:25:42.201Z,101084.69
2018-11-29T10:26:46.294Z,101082.52
2018-11-29T10:27:53.468Z,101084.18
2018-11-29T10:28:57.711Z,101083.23
2018-11-29T10:30:01.759Z,101086.73
2018-11-29T10:31:06.900Z,101082.63
2018-11-29T10:32:11.015Z,101089.77
2018-11-29T10:33:15.102Z,101076.98
2018-11-29T10:34:19.339Z,101072.41
2018-11-29T10:35:23.488Z,101077.61
2018-11-29T10:36:27.578Z,101077.95
2018-11-29T10:37:31.963Z,101065.08
2018-11-29T10:38:36.062Z,101063.38
2018-11-29T10:39:40.437Z,101060.72
2018-11-29T10:40:44.332Z,101069.53
2018-11-29T10:41:48.578Z,101043.87
2018-11-29T10:42:52.628Z,101028.45
2018-11-29T10:43:56.741Z,101035.45
2018-11-29T10:45:00.903Z,101024.13
2018-11-29T10:46:05.436Z,101031.22
2018-11-29T10:47:09.609Z,101030.84
2018-11-29T10:48:15.374Z,101035.20
2018-11-29T10:49:19.483Z,101037.95
2018-11-29T10:50:23.558Z,101045.42
2018-11-29T10:51:27.655Z,101049.02
2018-11-29T10:52:31.730Z,101043.25
2018-11-29T10:53:38.110Z,101042.40
2018-11-29T10:54:40.837Z,101041.45
2018-11-29T10:55:45.010Z,101036.63
2018-11-29T10:56:49.193Z,101033.02
2018-11-29T10:57:53.529Z,101029.05
2018-11-29T10:58:57.571Z,101031.22
2018-11-29T11:00:01.640Z,101037.00
2018-11-29T11:01:11.681Z,101048.45
2018-11-29T11:02:21.297Z,101036.15
2018-11-29T11:03:25.421Z,101045.91
2018-11-29T11:04:29.471Z,101035.42
2018-11-29T11:05:33.621Z,101041.67
2018-11-29T11:06:37.797Z,101036.00
2018-11-29T11:07:42.052Z,101032.16
2018-11-29T11:08:46.167Z,101044.55
2018-11-29T11:09:50.508Z,101046.45
2018-11-29T11:10:54.687Z,101051.75
2018-11-29T11:11:58.888Z,101048.62
2018-11-29T11:13:02.905Z,101061.78
2018-11-29T11:14:07.210Z,101049.00
2018-11-29T11:15:11.343Z,101052.73
2018-11-29T11:16:15.492Z,101051.27
2018-11-29T11:17:19.817Z,101054.16
2018-11-29T11:18:23.899Z,101056.45
2018-11-29T11:19:28.234Z,101048.98
2018-11-29T11:20:32.416Z,101049.93
2018-11-29T11:21:36.558Z,101046.05
2018-11-29T11:22:40.685Z,101044.25
2018-11-29T11:23:44.747Z,101027.02
2018-11-29T11:24:48.819Z,101035.83
2018-11-29T11:25:53.467Z,101024.38
2018-11-29T11:26:57.757Z,101024.50
2018-11-29T11:28:03.003Z,101021.00
2018-11-29T11:29:07.123Z,101032.55
2018-11-29T11:30:15.286Z,101040.63
2018-11-29T11:31:19.356Z,101045.65
2018-11-29T11:32:23.475Z,101052.78
2018-11-29T11:33:27.637Z,101051.92
2018-11-29T11:34:31.777Z,101048.52
2018-11-29T11:35:35.995Z,101053.48
2018-11-29T11:36:40.257Z,101059.34
2018-11-29T11:37:44.718Z,101057.30
2018-11-29T11:38:49.569Z,101048.12
2018-11-29T11:39:53.675Z,101037.65
2018-11-29T11:40:58.039Z,101041.72
2018-11-29T11:42:02.230Z,101029.45
2018-11-29T11:43:07.142Z,101019.42
2018-11-29T11:44:11.169Z,101007.25
2018-11-29T11:45:17.415Z,100995.80
2018-11-29T11:46:21.500Z,100980.39
2018-11-29T11:47:25.964Z,100983.41
2018-11-29T11:48:30.077Z,100950.20
2018-11-29T11:49:34.157Z,100942.73
2018-11-29T11:50:38.686Z,100930.91
2018-11-29T11:51:42.868Z,100917.42
2018-11-29T11:52:47.011Z,100886.24
2018-11-29T11:53:51.243Z,100863.83
2018-11-29T11:54:55.348Z,100873.80
2018-11-29T11:55:59.483Z,100872.10
2018-11-29T11:57:03.691Z,100840.55
2018-11-29T11:58:08.402Z,100819.37
2018-11-29T11:59:12.481Z,100783.27
2018-11-29T12:00:21.872Z,100794.88
2018-11-29T12:01:26.035Z,100787.79
2018-11-29T12:02:30.111Z,100785.75
2018-11-29T12:03:34.146Z,100759.74
2018-11-29T12:04:38.367Z,100746.03
2018-11-29T12:05:42.515Z,100746.98
2018-11-29T12:06:46.553Z,100758.89
2018-11-29T12:07:50.605Z,100751.94
2018-11-29T12:08:54.734Z,100739.03
2018-11-29T12:09:58.941Z,100747.83
2018-11-29T12:11:03.030Z,100734.72
2018-11-29T12:12:07.069Z,100733.88
2018-11-29T12:13:11.142Z,100755.53
2018-11-29T12:14:15.227Z,100778.41
2018-11-29T12:15:19.354Z,100765.17
2018-11-29T12:16:23.351Z,100767.82